Horacio Guerrero

Chefscout - UTC
4 Apr 2027
Sonntag
Verarbeitung

Persönlichkeit

Anpassungsfähigkeit (7) Ehrgeiz (12) Kontroverse (17) Loyalität (12) Druck (15) Professionalität (19) Fairness (5) Temperament (12)

Profil

Trainerstil Demokratisch
Lizenz Nationale B
Entschlossenheit 5
Menschenführung 9
Motivation 9
Disziplin 8
Arbeitszufriedenheit
64%
Ermüdung
0%
Rolle Chefscout
Gehalt 36.6K p/W
Vertrag 14.03.2029

Leistung

Verhalten Gut
Trainingseffektivität
18%
Spielerentwicklung
40%
Verletzungsprävention
15%
Taktische Umsetzung
35%

Letzte Ereignisse

Nahm an einer Scouting-Besprechung teil 14T her
Nahm an einer Scouting-Besprechung teil 21T her
Nahm an einer Scouting-Besprechung teil 28T her
Nahm an einer Scouting-Besprechung teil 35T her
Geburtstag 35T her
Nahm an einer Scouting-Besprechung teil 42T her
Nahm an einer Scouting-Besprechung teil 49T her
Nahm an einer Scouting-Besprechung teil 56T her

Aktuell beobachtet

79
Spieler Verein Status Fähigkeit Vertrauen Beobachtet Zuletzt beobachtet Letzte Stimme
Assad Al Hamlawi Universitatea Craiova Aktiv 140 / 114 40% 1 27.11.2026 -
Radek Šiler Podbrezova Aktiv 120 / 124 40% 2 24.11.2026 -
Hernán Luna NK Domzale Aktiv 82 / 93 40% 1 24.11.2026 -
Lucas Pazos Kolkheti Aktiv 108 / 92 40% 2 23.11.2026 -
Franklin Sasere Birkirkara Aktiv 103 / 96 40% 1 23.11.2026 -
Ciprian Coman Pandurii Aktiv 127 / 116 40% 1 22.11.2026 Mehr Infos nötig
César Magallan Estudiantes de Merida Aktiv 100 / 106 40% 2 18.11.2026 -
Yurii Klymchuk Kolos Aktiv 115 / 99 40% 2 18.11.2026 -
Daniel Tarazona Neftchi Aktiv 108 / 89 40% 3 17.11.2026 -
Gilson Benchimol Akron Aktiv 95 / 112 40% 1 17.11.2026 -
Carlos Paraco Metalist Aktiv 99 / 120 40% 2 16.11.2026 -
Ihor Krasnopir Polissia Aktiv 99 / 123 40% 1 14.11.2026 -
Kwame Opoku Asante Kotoko Aktiv 97 / 103 40% 2 13.11.2026 -
Ousmane Diawara Altach Aktiv 104 / 111 40% 1 13.11.2026 -
Félix Villacorta Orenburg Aktiv 85 / 95 40% 3 11.11.2026 -
Mykola Haiduchyk Polissia Aktiv 120 / 116 40% 1 11.11.2026 -
Felipe Fernández Vorskla Aktiv 117 / 112 40% 3 10.11.2026 Beobachten
Eric Ramírez Carabobo Aktiv 102 / 111 40% 6 09.11.2026 -
Rodrigo Trejo Vorskla Aktiv 101 / 90 40% 2 09.11.2026 -
Edarlyn Reyes Arsenal Tula Aktiv 98 / 102 40% 3 08.11.2026 -
Vyacheslav Grulev Nizhniy Novgorod Aktiv 112 / 107 40% 1 08.11.2026 -
Adalberto Peñaranda Deportivo Tachira Aktiv 115 / 114 40% 1 07.11.2026 -
Ieltsin Camões Tromso Aktiv 103 / 105 40% 1 04.11.2026 -
Marcelo Torres Gimnasia La Plata Aktiv 121 / 123 40% 4 02.11.2026 Beobachten
Lucas González Estudiantes Aktiv 112 / 106 40% 3 01.11.2026 -
Marcus Browne AFC Wimbledon Aktiv 98 / 111 40% 1 30.10.2026 -
Ekain Orobengoa Real Sociedad Aktiv 115 / 103 40% 2 26.10.2026 -
Yefrín Castillo Lokomotiv Plovdiv Aktiv 81 / 97 40% 3 22.10.2026 -
Junior Paredes Trujillanos Aktiv 92 / 98 40% 2 19.10.2026 -
Sergio Riffo Kolkheti Aktiv 104 / 100 40% 1 17.10.2026 -
Gustavo Rigazzi Metalist Aktiv 105 / 93 40% 1 17.10.2026 -
José Martínes CSKA 1948 Aktiv 113 / 97 40% 1 16.10.2026 -
Sveinn Aron Guðjohnsen Vikingur Aktiv 120 / 119 40% 1 16.10.2026 -
Mauro Schönfeld Stjarnan Aktiv 93 / 101 40% 3 14.10.2026 -
José Rivas Gamboa Trujillanos Aktiv 112 / 97 40% 2 13.10.2026 -
Ignacio Sabatini Gimnasia y Esgrima Aktiv 110 / 103 40% 1 12.10.2026 -
Deyman Cortés Botev Vratsa Aktiv 96 / 85 40% 1 08.10.2026 -
Cristhian Medina Smorgon Aktiv 80 / 89 40% 1 08.10.2026 -
Joshuan Berríos Carabobo Aktiv 104 / 100 40% 3 03.10.2026 -
Augusto Berrondo Tristán Suárez Aktiv 107 / 101 40% 1 02.10.2026 -
José Balza Deportivo Tachira Aktiv 104 / 106 40% 5 01.10.2026 -
Manuel Rodríguez Millonarios Aktiv 78 / 96 40% 1 01.10.2026 -
Brandon Hanlan Doncaster Rovers Aktiv 100 / 104 40% 1 29.09.2026 -
Vladislav Sarveli Nizhniy Novgorod Aktiv 108 / 111 40% 1 28.09.2026 -
Antony Medrano Dobrudzha Aktiv 73 / 90 40% 2 27.09.2026 -
Enzo Larrosa Independiente Medellin Aktiv 96 / 109 40% 4 23.09.2026 -
Samuel Anakwe Remo Stars Aktiv 84 / 100 40% 1 23.09.2026 -
Peter Christiansen Viking Aktiv 105 / 125 40% 1 22.09.2026 -
David Barrero Podbrezova Aktiv 92 / 83 40% 1 19.09.2026 -
Juan Cruz Zurbriggen San Telmo Aktiv 112 / 102 40% 2 18.09.2026 -
Genaro Rossi San Martín SJ Aktiv 110 / 106 40% 3 16.09.2026 -
Sam Nombe Milton Keynes Dons Aktiv 110 / 113 40% 1 16.09.2026 -
Shuaibu Ibrahim Wikki Tourists Aktiv 89 / 102 40% 1 13.09.2026 -
Tiago Benzi Belgrano Aktiv 107 / 105 40% 1 11.09.2026 -
Pablo Latorre Maipú Aktiv 90 / 83 40% 1 11.09.2026 -
Vitinho River Plate Aktiv 90 / 85 40% 1 10.09.2026 -
Ramiro Ruiz Rodríguez Atlético Tucumán Aktiv 131 / 114 40% 3 08.09.2026 -
Tomás Romero Unión de Santa Fe Aktiv 108 / 96 40% 2 08.09.2026 -
Andrés Molinas Omonoia Aktiv 97 / 100 40% 1 05.09.2026 -
Facundo García Almirante Brown Aktiv 84 / 100 40% 1 04.09.2026 -
Matías Mansilla Yenisey Aktiv 92 / 85 40% 1 03.09.2026 -
Alexander Rondón Oliveros Deportivo Tachira Aktiv 91 / 89 40% 2 02.09.2026 -
Diego Méndez Tacuarembo Aktiv 97 / 88 40% 1 29.08.2026 -
Alejandro Samudio Nacional Aktiv 95 / 102 40% 1 28.08.2026 -
Kleyder Barreto Zulia Aktiv 89 / 91 40% 1 24.08.2026 -
Gustavo Mosquera Botev Vratsa Aktiv 96 / 91 40% 1 23.08.2026 -
Juan Cekalovich Gimnasia y Esgrima Aktiv 101 / 91 40% 1 21.08.2026 -
Ronny Maza Aragua Aktiv 99 / 91 40% 1 14.08.2026 -
Martín Rodríguez Mitre Aktiv 102 / 99 40% 1 07.08.2026 -
Jesús Yendis Caracas Aktiv 118 / 102 40% 1 07.08.2026 -
Jonathan Bilbao Carabobo Aktiv 102 / 97 40% 1 06.08.2026 -
José Pinto Mineros de Guayana Aktiv 90 / 109 40% 1 06.08.2026 -
Fabricio Corbalán Gimnasia La Plata Aktiv 105 / 122 40% 1 05.08.2026 -
Leandro Quiroz Godoy Cruz Aktiv 119 / 114 40% 1 03.08.2026 -
Lucas Souto Defensa y Justicia Aktiv 122 / 131 40% 1 03.08.2026 -
Andrés Reyes Atletico Nacional Aktiv 119 / 113 40% 1 02.08.2026 -
Santiago González Tigre Aktiv 130 / 128 40% 1 02.08.2026 -
Jorge Berlanga Pachuca Aktiv 126 / 111 40% 1 01.08.2026 -
Francisco Perruzzi Aldosivi Aktiv 108 / 110 40% 1 01.08.2026 -